Time;durP1;ratioP1;P1;durP2;ratioP2;P2;SDS_P1;SDS_P2;PMS_P1;PMS_P2;Temp;Humidity;BMP_temperature;BMP_pressure;BME280_temperature;BME280_humidity;BME280_pressure;Samples;Min_cycle;Max_cycle;Signal;HPM_P1;HPM_P2
2023/04/07 00:00:21;;;;;;;30.95;19.00;;;9.20;99.90;;;;;;5098100;28;20040;-73
2023/04/07 00:02:47;;;;;;;37.08;21.13;;;9.10;99.90;;;;;;5099233;28;20074;-73
2023/04/07 00:05:14;;;;;;;35.08;20.85;;;9.10;99.90;;;;;;5099000;28;20094;-73
2023/04/07 00:07:40;;;;;;;38.03;21.70;;;9.20;99.90;;;;;;5099207;28;20360;-73
2023/04/07 00:10:07;;;;;;;33.38;20.10;;;9.10;99.90;;;;;;5097845;28;20047;-73
2023/04/07 00:12:33;;;;;;;42.92;23.92;;;9.20;99.90;;;;;;5099105;28;20040;-73
2023/04/07 00:14:58;;;;;;;39.00;23.65;;;9.30;99.90;;;;;;5098712;28;20382;-73
2023/04/07 00:17:24;;;;;;;34.10;21.00;;;9.30;99.90;;;;;;5099070;28;20085;-73
2023/04/07 00:19:50;;;;;;;34.75;20.45;;;9.20;99.90;;;;;;5098678;28;20421;-73
2023/04/07 00:22:16;;;;;;;35.55;21.55;;;9.10;99.90;;;;;;5098939;28;20075;-73
2023/04/07 00:24:42;;;;;;;38.85;23.52;;;9.10;99.90;;;;;;5098851;28;20036;-73
2023/04/07 00:27:08;;;;;;;40.30;22.20;;;9.00;99.90;;;;;;5098797;28;20055;-73
2023/04/07 00:29:33;;;;;;;36.20;21.45;;;9.10;99.90;;;;;;5098751;28;20048;-73
2023/04/07 00:31:59;;;;;;;44.40;26.25;;;9.20;99.90;;;;;;5098794;28;20125;-73
2023/04/07 00:34:25;;;;;;;39.47;24.02;;;9.20;99.90;;;;;;5098759;28;20435;-73
2023/04/07 00:36:51;;;;;;;34.25;21.30;;;9.20;99.90;;;;;;5098540;28;20123;-73
2023/04/07 00:39:18;;;;;;;43.85;24.58;;;9.20;99.90;;;;;;5098593;28;20309;-73
2023/04/07 00:41:44;;;;;;;36.72;22.80;;;9.30;99.90;;;;;;5097848;28;20047;-73
2023/04/07 00:44:10;;;;;;;41.38;24.48;;;9.30;99.90;;;;;;5098501;28;20047;-73
2023/04/07 00:46:36;;;;;;;37.92;22.88;;;9.20;99.90;;;;;;5098165;28;20035;-73
2023/04/07 00:49:01;;;;;;;48.08;26.55;;;9.30;99.90;;;;;;5098104;28;20032;-73
2023/04/07 00:51:27;;;;;;;42.78;23.63;;;9.40;99.90;;;;;;5098353;28;20040;-73
2023/04/07 00:53:54;;;;;;;44.47;25.60;;;9.30;99.90;;;;;;5098334;28;20039;-73
2023/04/07 00:56:19;;;;;;;35.08;22.88;;;9.30;99.90;;;;;;5098212;28;20047;-73
2023/04/07 00:58:45;;;;;;;46.25;24.35;;;9.20;99.90;;;;;;5097993;28;20048;-73
2023/04/07 01:01:25;;;;;;;47.80;27.42;;;9.20;99.90;;;;;;5098115;28;20040;-73
2023/04/07 01:04:08;;;;;;;42.05;23.90;;;9.20;99.90;;;;;;5096878;28;20115;-73
2023/04/07 01:06:39;;;;;;;43.78;26.40;;;9.20;99.90;;;;;;5097802;28;20040;-73
2023/04/07 01:09:12;;;;;;;39.83;24.60;;;9.10;99.90;;;;;;5097906;28;20329;-73
2023/04/07 01:11:59;;;;;;;49.78;26.73;;;9.20;99.90;;;;;;5097646;28;20069;-73
2023/04/07 01:14:31;;;;;;;47.53;26.23;;;9.00;99.90;;;;;;5097979;28;20043;-73
2023/04/07 01:17:00;;;;;;;41.70;25.20;;;9.00;99.90;;;;;;5097864;28;20048;-73
2023/04/07 01:19:55;;;;;;;43.45;25.20;;;9.10;99.90;;;;;;5097548;28;20571;-73
2023/04/07 01:22:27;;;;;;;53.28;27.52;;;9.10;99.90;;;;;;5089959;28;20083;-73
2023/04/07 01:25:09;;;;;;;42.55;25.17;;;9.20;99.90;;;;;;5097611;28;20118;-73
2023/04/07 01:27:47;;;;;;;46.70;27.65;;;9.20;99.90;;;;;;5097663;28;20050;-73
2023/04/07 01:30:15;;;;;;;47.70;27.23;;;9.20;99.90;;;;;;5097650;28;20040;-73
2023/04/07 01:32:45;;;;;;;48.75;27.75;;;9.20;99.90;;;;;;5097307;28;20119;-73
2023/04/07 01:35:12;;;;;;;43.33;25.23;;;9.10;99.90;;;;;;5097591;28;20310;-73
2023/04/07 01:37:39;;;;;;;45.40;25.98;;;9.20;99.90;;;;;;5097431;28;20389;-73
2023/04/07 01:40:07;;;;;;;48.90;28.10;;;9.30;99.90;;;;;;5097474;28;20083;-73
2023/04/07 01:42:35;;;;;;;49.13;28.30;;;9.30;99.90;;;;;;5097087;28;20040;-73
2023/04/07 01:45:03;;;;;;;48.80;27.13;;;9.30;99.90;;;;;;5097411;28;20043;-73
2023/04/07 01:47:29;;;;;;;50.03;28.10;;;9.20;99.90;;;;;;5097336;28;20046;-73
2023/04/07 01:50:03;;;;;;;43.58;25.58;;;9.10;99.90;;;;;;5097319;28;20326;-73
2023/04/07 01:52:30;;;;;;;45.92;27.15;;;9.10;99.90;;;;;;5096963;28;20075;-74
2023/04/07 01:54:56;;;;;;;47.33;27.42;;;9.30;99.90;;;;;;5096987;28;20067;-73
2023/04/07 01:57:22;;;;;;;49.78;28.95;;;9.40;99.90;;;;;;5096725;28;20055;-73
2023/04/07 01:59:48;;;;;;;45.45;25.63;;;9.40;99.90;;;;;;5097164;28;20044;-73
2023/04/07 02:02:13;;;;;;;44.85;27.83;;;9.40;99.90;;;;;;5097174;28;20079;-73
2023/04/07 02:04:52;;;;;;;62.65;31.58;;;9.30;99.90;;;;;;5097081;28;20333;-73
2023/04/07 02:07:28;;;;;;;51.33;28.67;;;9.40;99.90;;;;;;5097072;28;20328;-73
2023/04/07 02:09:56;;;;;;;;;;;9.40;99.90;;;;;;5077937;28;20036;-73
2023/04/07 02:12:25;;;;;;;43.38;26.42;;;9.40;99.90;;;;;;5074965;28;20011;-73
2023/04/07 02:14:51;;;;;;;48.10;26.85;;;9.30;99.90;;;;;;5076203;28;20076;-73
2023/04/07 02:17:17;;;;;;;39.97;25.40;;;9.30;99.90;;;;;;5076643;28;20044;-73
2023/04/07 02:19:44;;;;;;;40.65;26.00;;;9.20;99.90;;;;;;5076178;28;20101;-73
2023/04/07 02:22:12;;;;;;;48.42;29.38;;;9.20;99.90;;;;;;5076693;28;20079;-73
2023/04/07 02:24:41;;;;;;;39.70;25.05;;;9.30;99.90;;;;;;5076647;28;20040;-73
2023/04/07 02:27:07;;;;;;;58.42;30.63;;;9.20;99.90;;;;;;5076590;28;20105;-73
2023/04/07 02:29:33;;;;;;;59.03;28.85;;;9.30;99.90;;;;;;5076592;28;20041;-73
2023/04/07 02:31:58;;;;;;;48.65;28.20;;;9.30;99.90;;;;;;5076614;28;20052;-73
2023/04/07 02:34:24;;;;;;;43.50;26.63;;;9.20;99.90;;;;;;5076593;28;20045;-73
2023/04/07 02:36:50;;;;;;;51.50;29.77;;;9.10;99.90;;;;;;5076442;28;20041;-73
2023/04/07 02:39:16;;;;;;;44.58;26.63;;;9.00;99.90;;;;;;5076213;28;20052;-73
2023/04/07 02:41:41;;;;;;;56.65;30.98;;;9.10;99.90;;;;;;5076062;28;20029;-73
2023/04/07 02:44:07;;;;;;;51.72;28.65;;;9.20;99.90;;;;;;5076147;28;20045;-73
2023/04/07 02:46:33;;;;;;;48.75;28.60;;;9.20;99.90;;;;;;5076427;28;20040;-73
2023/04/07 02:48:58;;;;;;;56.22;30.60;;;9.10;99.90;;;;;;5076371;28;20044;-73
2023/04/07 02:51:25;;;;;;;48.97;29.65;;;9.10;99.90;;;;;;5076113;28;20040;-73
2023/04/07 02:53:51;;;;;;;58.78;32.33;;;9.20;99.90;;;;;;5076800;28;20049;-73
2023/04/07 02:56:17;;;;;;;50.75;28.25;;;9.30;99.90;;;;;;5076343;28;20483;-73
2023/04/07 02:58:43;;;;;;;59.00;31.50;;;9.30;99.90;;;;;;5074828;28;20102;-73
2023/04/07 03:01:08;;;;;;;50.38;29.70;;;9.40;99.90;;;;;;5076310;28;20047;-74
2023/04/07 03:03:34;;;;;;;56.35;31.35;;;9.40;99.90;;;;;;5076345;28;20039;-73
2023/04/07 03:06:00;;;;;;;44.90;27.20;;;9.50;99.90;;;;;;5075964;28;20417;-73
2023/04/07 03:08:26;;;;;;;44.05;27.85;;;9.50;99.90;;;;;;5075925;28;20041;-73
2023/04/07 03:10:51;;;;;;;44.38;26.92;;;9.50;99.90;;;;;;5075483;28;20063;-73
2023/04/07 03:13:18;;;;;;;42.90;26.92;;;9.40;99.90;;;;;;5076138;28;20036;-73
2023/04/07 03:15:44;;;;;;;47.85;26.33;;;9.40;99.90;;;;;;5075802;28;20045;-74
2023/04/07 03:18:10;;;;;;;54.42;30.02;;;9.40;99.90;;;;;;5076167;28;20032;-73
2023/04/07 03:20:36;;;;;;;42.25;26.63;;;9.60;99.90;;;;;;5076100;28;20426;-73
2023/04/07 03:23:02;;;;;;;44.65;26.27;;;9.60;99.90;;;;;;5076115;28;20036;-73
2023/04/07 03:25:28;;;;;;;44.75;25.77;;;9.60;99.90;;;;;;5076128;28;20129;-73
2023/04/07 03:27:54;;;;;;;43.72;26.20;;;9.50;99.90;;;;;;5076081;28;20086;-73
2023/04/07 03:30:20;;;;;;;41.53;26.20;;;9.50;99.90;;;;;;5075811;28;20438;-73
2023/04/07 03:32:46;;;;;;;39.25;25.67;;;9.40;99.90;;;;;;5078676;28;20052;-73
2023/04/07 03:35:11;;;;;;;38.33;25.10;;;9.50;99.90;;;;;;5079559;28;20067;-73
2023/04/07 03:37:37;;;;;;;43.83;26.95;;;9.50;99.90;;;;;;5079421;28;20379;-73
2023/04/07 03:40:03;;;;;;;47.08;27.35;;;9.30;99.90;;;;;;5079446;28;20037;-73
2023/04/07 03:42:28;;;;;;;64.47;31.02;;;9.20;99.90;;;;;;5078727;28;20044;-73
2023/04/07 03:44:54;;;;;;;45.83;26.95;;;9.00;99.90;;;;;;5079379;28;20036;-73
2023/04/07 03:47:21;;;;;;;56.85;28.70;;;9.10;99.90;;;;;;5079424;28;20433;-73
2023/04/07 03:49:47;;;;;;;43.60;25.13;;;9.20;99.90;;;;;;5079324;28;20052;-73
2023/04/07 03:52:12;;;;;;;53.45;28.27;;;9.30;99.90;;;;;;5079239;28;20049;-73
2023/04/07 03:54:38;;;;;;;54.33;30.23;;;9.30;99.90;;;;;;5079145;28;20040;-73
2023/04/07 03:57:04;;;;;;;42.88;26.13;;;9.30;99.90;;;;;;5079090;28;20330;-73
2023/04/07 03:59:30;;;;;;;45.83;26.83;;;9.30;99.90;;;;;;5078674;28;20473;-73
2023/04/07 04:01:55;;;;;;;39.17;24.58;;;9.30;99.90;;;;;;5078782;28;20033;-73
2023/04/07 04:04:23;;;;;;;44.95;26.17;;;9.30;99.90;;;;;;5078752;28;20036;-73
2023/04/07 04:06:49;;;;;;;40.05;24.27;;;9.40;99.90;;;;;;5078985;28;20149;-73
2023/04/07 04:09:15;;;;;;;43.55;24.35;;;9.20;99.90;;;;;;5078973;28;20133;-73
2023/04/07 04:11:41;;;;;;;41.60;24.27;;;9.10;99.90;;;;;;5078157;28;20442;-73
2023/04/07 04:14:07;;;;;;;48.80;27.33;;;9.00;99.90;;;;;;5078850;28;20121;-73
2023/04/07 04:16:34;;;;;;;44.42;26.52;;;9.10;99.90;;;;;;5078452;28;20131;-73
2023/04/07 04:19:00;;;;;;;43.78;25.02;;;9.10;99.90;;;;;;5078787;28;20040;-73
2023/04/07 04:21:26;;;;;;;48.75;27.60;;;9.10;99.90;;;;;;5078752;28;20036;-73
2023/04/07 04:23:52;;;;;;;43.35;26.60;;;9.10;99.90;;;;;;5078652;28;20028;-73
2023/04/07 04:26:18;;;;;;;38.20;23.52;;;9.10;99.90;;;;;;5078672;28;20036;-73
2023/04/07 04:28:43;;;;;;;40.63;24.83;;;9.00;99.90;;;;;;5078588;28;20037;-73
2023/04/07 04:31:09;;;;;;;36.55;22.65;;;9.10;99.90;;;;;;5078471;28;20115;-73
2023/04/07 04:33:35;;;;;;;37.67;23.00;;;9.00;99.90;;;;;;5078477;28;20040;-73
2023/04/07 04:36:01;;;;;;;42.38;25.67;;;8.90;99.90;;;;;;5078551;28;20123;-73
2023/04/07 04:38:27;;;;;;;55.17;28.52;;;8.90;99.90;;;;;;5078304;28;20044;-74
2023/04/07 04:40:52;;;;;;;39.55;24.20;;;9.00;99.90;;;;;;5077597;28;20040;-73
2023/04/07 04:43:18;;;;;;;38.10;23.50;;;8.90;99.90;;;;;;5077846;28;20044;-74
2023/04/07 04:45:44;;;;;;;45.55;25.73;;;9.00;99.90;;;;;;5078246;28;20069;-73
2023/04/07 04:48:10;;;;;;;38.25;22.95;;;9.00;99.90;;;;;;5078229;28;20480;-73
2023/04/07 04:50:36;;;;;;;37.75;23.23;;;9.00;99.90;;;;;;5077074;28;20108;-73
2023/04/07 04:53:01;;;;;;;38.72;22.90;;;9.00;99.90;;;;;;5078071;28;20433;-73
2023/04/07 04:55:27;;;;;;;35.95;22.42;;;9.00;99.90;;;;;;5078087;28;20063;-74
2023/04/07 04:57:53;;;;;;;46.03;26.05;;;9.00;99.90;;;;;;5077698;28;20498;-73
2023/04/07 05:00:19;;;;;;;38.55;22.65;;;9.00;99.90;;;;;;5077930;28;20044;-73
2023/04/07 05:02:45;;;;;;;36.97;21.85;;;9.00;99.90;;;;;;5077599;28;20048;-73
2023/04/07 05:05:11;;;;;;;47.30;26.15;;;9.00;99.90;;;;;;5077481;28;20051;-73
2023/04/07 05:07:39;;;;;;;43.50;24.58;;;9.00;99.90;;;;;;5077790;28;20048;-73
2023/04/07 05:10:06;;;;;;;36.55;22.13;;;9.00;99.90;;;;;;5077728;28;20125;-73
2023/04/07 05:12:32;;;;;;;38.35;22.92;;;9.00;99.90;;;;;;5075947;28;20053;-73
2023/04/07 05:14:58;;;;;;;42.05;24.08;;;9.00;99.90;;;;;;5077580;28;20058;-73
2023/04/07 05:17:23;;;;;;;33.55;21.00;;;9.20;99.90;;;;;;5077507;28;20412;-73
2023/04/07 05:19:49;;;;;;;44.90;26.65;;;9.00;99.90;;;;;;5077544;28;20037;-73
2023/04/07 05:22:15;;;;;;;45.90;25.17;;;8.90;99.90;;;;;;5077476;28;20044;-73
2023/04/07 05:24:41;;;;;;;38.35;23.25;;;8.90;99.90;;;;;;5077228;28;20048;-73
2023/04/07 05:27:06;;;;;;;38.95;23.05;;;8.90;99.90;;;;;;5077399;28;20044;-73
2023/04/07 05:29:32;;;;;;;44.08;24.92;;;8.90;99.90;;;;;;5077376;28;20338;-73
2023/04/07 05:32:00;;;;;;;35.03;21.20;;;8.80;99.90;;;;;;5077322;28;20047;-73
2023/04/07 05:34:26;;;;;;;45.25;25.80;;;8.90;99.90;;;;;;5076978;28;20089;-73
2023/04/07 05:36:52;;;;;;;38.13;22.83;;;8.90;99.90;;;;;;5077176;28;20041;-73
2023/04/07 05:39:18;;;;;;;44.03;24.63;;;8.90;99.90;;;;;;5076962;28;20043;-73
2023/04/07 05:41:44;;;;;;;36.47;22.33;;;9.10;99.90;;;;;;5076506;28;20046;-73
2023/04/07 05:44:09;;;;;;;41.05;23.83;;;9.10;99.90;;;;;;5077204;28;20040;-73
2023/04/07 05:46:35;;;;;;;38.47;24.33;;;9.10;99.90;;;;;;5077162;28;20099;-73
2023/04/07 05:49:01;;;;;;;41.47;23.50;;;9.10;99.90;;;;;;5077052;28;20064;-72
2023/04/07 05:51:26;;;;;;;36.42;22.05;;;9.20;99.90;;;;;;5077057;28;20040;-72
2023/04/07 05:53:52;;;;;;;37.35;21.90;;;9.00;99.90;;;;;;5076051;28;20083;-73
2023/04/07 05:56:18;;;;;;;47.53;26.48;;;9.10;99.90;;;;;;5076670;28;20041;-73
2023/04/07 05:58:43;;;;;;;32.85;21.58;;;9.10;99.90;;;;;;5076604;28;20098;-73
2023/04/07 06:01:09;;;;;;;35.25;21.92;;;9.10;99.90;;;;;;5076890;28;20036;-73
2023/04/07 06:03:35;;;;;;;41.22;25.30;;;9.10;99.90;;;;;;5076940;28;20094;-73
2023/04/07 06:06:01;;;;;;;33.90;21.33;;;9.10;99.90;;;;;;5076796;28;20426;-72
2023/04/07 06:08:26;;;;;;;40.65;24.20;;;9.00;99.90;;;;;;5076533;28;20129;-73
2023/04/07 06:10:52;;;;;;;34.63;21.88;;;9.10;99.90;;;;;;5076452;28;20040;-73
2023/04/07 06:13:18;;;;;;;38.20;23.30;;;9.10;99.90;;;;;;5076803;28;20425;-73
2023/04/07 06:15:43;;;;;;;33.50;21.35;;;9.10;99.90;;;;;;5076688;28;20048;-73
2023/04/07 06:18:09;;;;;;;32.10;20.58;;;9.10;99.90;;;;;;5076701;28;20086;-73
2023/04/07 06:20:35;;;;;;;36.20;22.77;;;9.20;99.90;;;;;;5076688;28;20039;-73
2023/04/07 06:23:00;;;;;;;38.30;21.75;;;9.30;99.90;;;;;;5076424;28;20421;-73
2023/04/07 06:25:26;;;;;;;33.20;20.20;;;9.20;99.90;;;;;;5076674;28;20046;-73
2023/04/07 06:27:53;;;;;;;33.65;20.15;;;9.30;99.90;;;;;;5076590;28;20044;-73
2023/04/07 06:30:19;;;;;;;33.42;20.58;;;9.30;99.90;;;;;;5076671;28;20115;-73
2023/04/07 06:32:45;;;;;;;36.17;21.88;;;9.40;99.90;;;;;;5076646;28;20162;-73
2023/04/07 06:35:11;;;;;;;34.40;21.63;;;9.50;99.90;;;;;;5076599;28;20048;-73
2023/04/07 06:37:38;;;;;;;29.38;19.42;;;9.50;99.90;;;;;;5076426;28;20186;-73
2023/04/07 06:40:05;;;;;;;28.42;18.67;;;9.70;99.90;;;;;;5076242;28;20448;-73
2023/04/07 06:42:30;;;;;;;36.28;23.38;;;9.60;99.90;;;;;;5075777;28;20426;-73
2023/04/07 06:44:56;;;;;;;35.28;22.17;;;9.60;99.90;;;;;;5076481;28;20041;-73
2023/04/07 06:47:23;;;;;;;32.03;20.08;;;9.50;99.90;;;;;;5076437;28;20086;-73
2023/04/07 06:49:48;;;;;;;40.15;23.80;;;9.40;99.90;;;;;;5076445;28;20041;-73
2023/04/07 06:52:14;;;;;;;33.20;20.55;;;9.50;99.90;;;;;;5084741;28;20302;-73
2023/04/07 06:54:40;;;;;;;32.72;20.60;;;9.70;99.90;;;;;;5095931;28;20067;-73
2023/04/07 06:57:10;;;;;;;31.63;19.80;;;9.60;99.90;;;;;;5095859;28;20036;-73
2023/04/07 06:59:37;;;;;;;36.88;22.38;;;9.60;99.90;;;;;;5095878;28;20060;-73
2023/04/07 07:02:03;;;;;;;36.50;22.35;;;9.60;99.90;;;;;;5095670;28;20036;-73
2023/04/07 07:04:28;;;;;;;32.28;20.13;;;9.60;99.90;;;;;;5095542;28;20089;-69
2023/04/07 07:06:54;;;;;;;33.75;20.95;;;9.60;99.90;;;;;;5099460;28;20063;-67
2023/04/07 07:09:21;;;;;;;32.40;20.23;;;9.60;99.90;;;;;;5100041;28;20119;-67
2023/04/07 07:11:46;;;;;;;31.10;19.17;;;9.50;99.90;;;;;;5099949;28;20071;-67
2023/04/07 07:14:12;;;;;;;33.97;22.10;;;9.50;99.90;;;;;;5100269;28;20422;-68
2023/04/07 07:16:38;;;;;;;32.08;20.67;;;9.60;99.90;;;;;;5099787;28;20048;-67
2023/04/07 07:19:03;;;;;;;32.00;20.15;;;9.80;99.90;;;;;;5100163;28;20036;-68
2023/04/07 07:21:30;;;;;;;35.58;22.25;;;9.90;99.90;;;;;;5099853;28;20039;-68
2023/04/07 07:23:56;;;;;;;34.60;20.92;;;9.90;99.90;;;;;;5100315;28;20303;-68
2023/04/07 07:26:22;;;;;;;37.30;23.33;;;9.90;99.90;;;;;;5100040;28;20047;-68
2023/04/07 07:28:47;;;;;;;37.67;22.85;;;10.10;99.90;;;;;;5099928;28;20086;-68
2023/04/07 07:31:14;;;;;;;35.55;21.58;;;10.10;99.90;;;;;;5099963;28;20441;-67
2023/04/07 07:33:42;;;;;;;30.65;19.50;;;10.20;99.90;;;;;;5098803;28;20054;-67
2023/04/07 07:36:09;;;;;;;31.95;20.80;;;10.40;99.90;;;;;;5099748;28;20036;-67
2023/04/07 07:38:35;;;;;;;30.40;19.63;;;10.40;99.90;;;;;;5099817;28;20040;-66
2023/04/07 07:41:01;;;;;;;32.08;19.63;;;10.40;99.90;;;;;;5099411;28;20097;-67
2023/04/07 07:43:27;;;;;;;28.58;19.52;;;10.30;99.90;;;;;;5099487;28;20040;-68
2023/04/07 07:45:53;;;;;;;29.08;18.65;;;10.20;99.90;;;;;;5099646;28;20036;-67
2023/04/07 07:48:18;;;;;;;27.48;18.30;;;10.10;99.90;;;;;;5098273;28;20123;-68
2023/04/07 07:50:44;;;;;;;26.73;17.15;;;10.20;99.90;;;;;;5099540;28;20070;-68
2023/04/07 07:53:10;;;;;;;24.13;16.65;;;10.20;99.90;;;;;;5099572;28;20428;-68
2023/04/07 07:55:36;;;;;;;26.90;16.83;;;10.00;99.90;;;;;;5099492;28;20409;-67
2023/04/07 07:58:01;;;;;;;23.85;15.48;;;9.90;99.90;;;;;;5099149;28;20501;-67
2023/04/07 08:00:27;;;;;;;26.08;17.83;;;10.00;99.90;;;;;;5099380;28;20051;-67
2023/04/07 08:02:53;;;;;;;24.63;16.45;;;10.00;99.90;;;;;;5099110;28;20039;-68
2023/04/07 08:05:19;;;;;;;29.90;16.95;;;10.00;99.90;;;;;;5099301;28;20439;-67
2023/04/07 08:07:45;;;;;;;25.92;17.05;;;10.10;99.90;;;;;;5098036;28;20131;-67
2023/04/07 08:10:12;;;;;;;26.13;17.15;;;10.20;99.90;;;;;;5098946;28;20036;-67
2023/04/07 08:12:38;;;;;;;25.35;16.55;;;10.20;99.90;;;;;;5098790;28;20089;-67
2023/04/07 08:15:05;;;;;;;26.67;17.45;;;10.10;99.90;;;;;;5099143;28;20035;-66
2023/04/07 08:17:31;;;;;;;28.50;16.20;;;10.10;99.90;;;;;;5098208;28;20058;-66
2023/04/07 08:19:56;;;;;;;22.25;14.93;;;10.10;99.90;;;;;;5098989;28;20425;-67
2023/04/07 08:22:22;;;;;;;24.85;16.27;;;10.10;99.90;;;;;;5098994;28;20445;-66
2023/04/07 08:24:48;;;;;;;23.50;14.43;;;10.10;99.90;;;;;;5098893;28;20429;-68
2023/04/07 08:27:13;;;;;;;22.95;15.10;;;10.10;99.90;;;;;;5098845;28;20413;-67
2023/04/07 08:29:39;;;;;;;24.23;15.60;;;10.20;99.90;;;;;;5098769;28;20127;-66
2023/04/07 08:32:05;;;;;;;26.10;16.50;;;10.30;99.90;;;;;;5098693;28;20069;-67
2023/04/07 08:34:31;;;;;;;27.42;18.00;;;10.40;99.90;;;;;;5097747;28;20071;-67
2023/04/07 08:36:56;;;;;;;26.00;17.23;;;10.40;99.90;;;;;;5098550;28;20059;-67
2023/04/07 08:39:24;;;;;;;26.10;16.83;;;10.30;99.90;;;;;;5098514;28;20444;-67
2023/04/07 08:41:50;;;;;;;28.83;18.83;;;10.40;99.90;;;;;;5098097;28;20110;-67
2023/04/07 08:44:20;;;;;;;27.15;18.65;;;10.50;99.90;;;;;;5098472;28;20047;-67
2023/04/07 08:46:47;;;;;;;27.92;18.17;;;10.50;99.90;;;;;;5098380;28;20044;-67
2023/04/07 08:49:16;;;;;;;32.40;19.83;;;10.60;99.90;;;;;;5097133;28;20071;-67
2023/04/07 08:51:47;;;;;;;32.80;20.13;;;10.60;99.90;;;;;;5098021;28;20036;-67
2023/04/07 08:54:14;;;;;;;29.85;20.02;;;10.60;99.90;;;;;;5098311;28;20123;-68
2023/04/07 08:56:42;;;;;;;31.33;20.38;;;10.50;99.90;;;;;;5098229;28;20067;-68
2023/04/07 08:59:10;;;;;;;31.27;19.48;;;10.60;99.90;;;;;;5097736;28;20056;-67
2023/04/07 09:01:36;;;;;;;32.08;19.92;;;10.60;99.90;;;;;;5098210;28;20040;-67
2023/04/07 09:04:03;;;;;;;32.42;19.65;;;10.80;99.90;;;;;;5098145;28;20036;-67
2023/04/07 09:06:30;;;;;;;29.73;19.15;;;11.00;99.90;;;;;;5097798;28;20444;-67
2023/04/07 09:09:00;;;;;;;30.67;19.98;;;10.90;99.90;;;;;;5098066;28;20044;-68
2023/04/07 09:11:27;;;;;;;29.67;19.77;;;11.00;99.90;;;;;;5097607;28;20044;-68
2023/04/07 09:13:54;;;;;;;30.58;19.80;;;11.10;99.90;;;;;;5097990;28;20040;-67
2023/04/07 09:16:20;;;;;;;32.03;20.20;;;11.20;99.90;;;;;;5097870;28;20091;-67
2023/04/07 09:18:46;;;;;;;28.60;18.45;;;11.20;99.90;;;;;;5097875;28;20359;-67
2023/04/07 09:21:11;;;;;;;29.42;18.58;;;11.10;99.90;;;;;;5096854;28;20329;-67
2023/04/07 09:23:39;;;;;;;29.70;19.13;;;11.00;99.90;;;;;;5097483;28;20036;-67
2023/04/07 09:26:26;;;;;;;28.80;18.77;;;11.00;99.90;;;;;;5097637;28;20047;-66
2023/04/07 09:28:55;;;;;;;31.38;19.58;;;11.00;99.90;;;;;;5097440;28;20040;-67
2023/04/07 09:31:22;;;;;;;30.55;19.27;;;11.10;99.90;;;;;;5097630;28;20028;-66
2023/04/07 09:33:48;;;;;;;27.02;17.58;;;11.10;99.90;;;;;;5097587;28;20121;-67
2023/04/07 09:36:14;;;;;;;29.60;18.65;;;10.90;99.90;;;;;;5097493;28;20224;-67
2023/04/07 09:38:42;;;;;;;30.42;17.98;;;10.90;99.90;;;;;;5097529;28;20107;-67
2023/04/07 09:41:13;;;;;;;28.60;19.00;;;10.80;99.90;;;;;;5097447;28;20040;-67
2023/04/07 09:43:43;;;;;;;27.08;17.85;;;10.80;99.90;;;;;;5097349;28;20040;-67
2023/04/07 09:46:11;;;;;;;27.92;17.33;;;10.80;99.90;;;;;;5097281;28;20082;-68
2023/04/07 09:48:38;;;;;;;27.70;17.45;;;11.00;99.90;;;;;;5097327;28;20050;-69
2023/04/07 09:51:11;;;;;;;26.67;17.42;;;11.20;99.90;;;;;;5096984;28;20421;-69
2023/04/07 09:53:48;;;;;;;26.00;16.77;;;11.40;99.90;;;;;;5097088;28;20051;-70
2023/04/07 09:56:21;;;;;;;25.17;15.63;;;11.20;99.90;;;;;;5097146;28;20040;-69
2023/04/07 09:58:52;;;;;;;26.85;15.60;;;11.30;99.90;;;;;;5096791;28;20399;-69
2023/04/07 10:01:19;;;;;;;23.92;14.48;;;11.30;99.90;;;;;;5097139;28;20079;-70
2023/04/07 10:03:46;;;;;;;23.10;14.77;;;11.30;99.90;;;;;;5097135;28;20172;-71
2023/04/07 10:06:12;;;;;;;22.77;14.63;;;11.30;99.90;;;;;;5096090;28;20039;-70
2023/04/07 10:08:41;;;;;;;18.85;12.93;;;11.40;99.90;;;;;;5095682;28;20036;-70
2023/04/07 10:11:08;;;;;;;20.45;13.27;;;11.60;99.90;;;;;;5096402;28;20431;-70
2023/04/07 10:13:35;;;;;;;16.15;10.50;;;11.70;99.90;;;;;;5096954;28;20067;-69
2023/04/07 10:16:06;;;;;;;17.77;10.82;;;11.60;99.90;;;;;;5096610;28;20093;-70
2023/04/07 10:18:34;;;;;;;13.18;10.02;;;11.60;99.90;;;;;;5096617;28;20441;-69
2023/04/07 10:21:02;;;;;;;12.90;9.02;;;11.70;99.90;;;;;;5096888;28;20036;-70
2023/04/07 10:23:42;;;;;;;15.05;9.50;;;11.70;99.90;;;;;;5096635;28;20381;-69
2023/04/07 10:26:08;;;;;;;15.63;10.55;;;12.10;99.90;;;;;;5096542;28;20414;-67
2023/04/07 10:28:40;;;;;;;14.98;10.88;;;12.30;99.90;;;;;;5096880;28;20369;-70
2023/04/07 10:31:06;;;;;;;17.15;10.45;;;12.30;99.90;;;;;;5096846;28;20334;-71
2023/04/07 10:33:46;;;;;;;17.73;12.00;;;12.30;99.90;;;;;;5096821;28;20040;-70
2023/04/07 10:36:12;;;;;;;18.73;12.60;;;12.20;99.90;;;;;;5096746;28;20044;-71
2023/04/07 10:38:38;;;;;;;21.02;13.60;;;12.10;99.90;;;;;;5096714;28;20036;-69
2023/04/07 10:41:33;;;;;;;20.23;12.77;;;12.10;99.90;;;;;;5098103;28;20115;-70
2023/04/07 10:43:59;;;;;;;19.63;13.43;;;12.10;99.90;;;;;;5100847;28;20040;-68
2023/04/07 10:46:45;;;;;;;18.88;12.77;;;12.30;99.90;;;;;;5100439;28;20036;-70
2023/04/07 10:49:12;;;;;;;20.52;13.20;;;12.40;99.90;;;;;;5100389;28;20476;-70
2023/04/07 10:51:38;;;;;;;20.73;13.57;;;12.50;99.90;;;;;;5100462;28;20035;-69
2023/04/07 10:54:21;;;;;;;18.67;12.73;;;12.70;99.90;;;;;;5100627;28;20081;-69
2023/04/07 10:57:02;;;;;;;17.77;12.25;;;12.70;99.90;;;;;;5099169;28;20044;-69
2023/04/07 10:59:32;;;;;;;19.20;12.10;;;12.80;99.90;;;;;;5100070;28;20056;-68
2023/04/07 11:02:13;;;;;;;16.67;11.75;;;12.90;99.90;;;;;;5100411;28;20040;-68
2023/04/07 11:04:44;;;;;;;17.92;12.05;;;13.00;99.90;;;;;;5100019;28;20444;-69
2023/04/07 11:07:10;;;;;;;17.65;12.30;;;13.00;99.90;;;;;;5100296;28;20040;-69
2023/04/07 11:09:36;;;;;;;19.58;12.95;;;13.10;99.90;;;;;;5082314;28;20448;-69
2023/04/07 11:12:03;;;;;;;18.13;12.27;;;13.00;99.90;;;;;;5099680;28;20141;-69
2023/04/07 11:14:31;;;;;;;17.33;12.30;;;12.90;99.90;;;;;;5100243;28;20040;-68
2023/04/07 11:16:58;;;;;;;17.08;11.07;;;13.00;99.90;;;;;;5100135;28;20085;-68
2023/04/07 11:19:24;;;;;;;16.33;11.07;;;12.90;99.90;;;;;;5100193;28;20040;-69
2023/04/07 11:21:50;;;;;;;16.38;10.90;;;13.20;99.90;;;;;;5100122;28;20036;-69
2023/04/07 11:24:51;;;;;;;14.65;9.73;;;13.40;99.90;;;;;;5098765;28;20036;-69
2023/04/07 11:27:17;;;;;;;14.60;8.43;;;13.50;99.90;;;;;;5017804;28;20050;-69
2023/04/07 11:29:43;;;;;;;11.82;8.57;;;13.60;99.90;;;;;;5083243;28;20086;-67
2023/04/07 11:32:11;;;;;;;12.30;8.65;;;13.80;99.90;;;;;;5099991;28;20051;-68
2023/04/07 11:34:37;;;;;;;10.52;7.28;;;13.90;99.90;;;;;;5098608;28;20306;-68
2023/04/07 11:37:26;;;;;;;10.45;7.60;;;13.80;99.90;;;;;;5099762;28;20036;-68
2023/04/07 11:39:56;;;;;;;11.82;7.50;;;13.80;99.90;;;;;;5099851;28;20050;-68
2023/04/07 11:42:37;;;;;;;10.10;7.40;;;13.90;99.90;;;;;;5081308;28;20032;-68
2023/04/07 11:45:03;;;;;;;11.15;7.05;;;13.60;99.90;;;;;;5081432;28;20044;-69
2023/04/07 11:47:38;;;;;;;10.52;7.60;;;13.70;99.90;;;;;;5099333;28;20040;-69
2023/04/07 11:50:05;;;;;;;10.73;7.65;;;13.80;99.90;;;;;;5099314;28;20048;-70
2023/04/07 11:52:47;;;;;;;11.45;8.15;;;13.60;99.90;;;;;;5098364;28;20036;-70
2023/04/07 11:55:21;;;;;;;12.98;8.43;;;13.60;99.90;;;;;;5099614;28;20081;-70
2023/04/07 11:57:47;;;;;;;12.07;8.05;;;13.90;99.90;;;;;;5099179;28;20079;-70
2023/04/07 12:00:14;;;;;;;10.82;8.23;;;14.10;99.90;;;;;;5099549;28;20114;-70
2023/04/07 12:02:40;;;;;;;12.43;8.85;;;14.20;99.90;;;;;;5099094;28;20076;-69
2023/04/07 12:05:06;;;;;;;10.43;8.10;;;14.50;99.90;;;;;;5099334;28;20048;-69
2023/04/07 12:07:32;;;;;;;12.55;8.15;;;14.90;99.90;;;;;;5098265;28;20047;-70
2023/04/07 12:10:16;;;;;;;11.00;8.85;;;15.20;99.90;;;;;;5098876;28;20043;-69
2023/04/07 12:12:45;;;;;;;11.20;8.38;;;15.90;99.90;;;;;;5098849;28;20050;-70
2023/04/07 12:15:10;;;;;;;9.82;7.85;;;16.30;99.90;;;;;;5099117;28;20040;-70
2023/04/07 12:17:36;;;;;;;9.98;7.97;;;16.60;99.90;;;;;;5099024;28;20443;-70
2023/04/07 12:20:02;;;;;;;12.18;7.78;;;16.70;99.90;;;;;;5099084;28;20398;-70
2023/04/07 12:22:28;;;;;;;10.93;7.47;;;17.10;99.90;;;;;;5098987;28;20063;-70
2023/04/07 12:24:53;;;;;;;9.70;7.53;;;17.40;99.90;;;;;;5098596;28;20104;-69
2023/04/07 12:27:19;;;;;;;8.38;6.88;;;17.50;99.90;;;;;;5098868;28;20050;-70
2023/04/07 12:29:45;;;;;;;8.70;7.03;;;18.00;99.90;;;;;;5098800;28;20035;-69
2023/04/07 12:32:10;;;;;;;9.02;6.90;;;18.10;99.90;;;;;;5098783;28;20307;-70
2023/04/07 12:34:39;;;;;;;8.40;6.93;;;17.80;99.90;;;;;;5098405;28;20036;-70
2023/04/07 12:37:06;;;;;;;9.20;7.40;;;17.40;99.90;;;;;;5098647;28;20051;-70